createdAt,value
2023-01-22T00:00:52.792Z,67.98
2023-01-22T00:06:58.799Z,67.84
2023-01-22T00:13:14.033Z,67.99
2023-01-22T00:18:27.207Z,67.72
2023-01-22T00:24:37.147Z,67.90
2023-01-22T00:30:07.591Z,67.79
2023-01-22T00:36:04.138Z,67.63
2023-01-22T00:42:02.597Z,67.41
2023-01-22T00:48:27.307Z,67.19
2023-01-22T00:54:31.088Z,67.14
2023-01-22T01:00:55.942Z,67.17
2023-01-22T01:06:42.295Z,66.89
2023-01-22T01:12:56.650Z,67.07
2023-01-22T01:25:59.130Z,67.08
2023-01-22T01:38:25.414Z,66.35
2023-01-22T01:44:39.274Z,66.42
2023-01-22T01:50:37.795Z,66.23
2023-01-22T01:56:18.984Z,66.37
2023-01-22T02:02:25.997Z,66.37
2023-01-22T02:08:44.150Z,66.59
2023-01-22T02:14:42.662Z,66.40
2023-01-22T02:20:21.435Z,66.62
2023-01-22T02:26:09.471Z,66.73
2023-01-22T02:31:59.982Z,66.62
2023-01-22T02:37:41.085Z,66.81
2023-01-22T02:44:18.299Z,66.49
2023-01-22T02:50:25.609Z,66.58
2023-01-22T02:55:45.292Z,66.51
2023-01-22T03:02:00.540Z,66.64
2023-01-22T03:08:05.140Z,66.77
2023-01-22T03:14:34.193Z,66.34
2023-01-22T03:20:35.429Z,66.35
2023-01-22T03:26:26.243Z,66.05
2023-01-22T03:31:58.430Z,65.76
2023-01-22T03:38:23.357Z,65.82
2023-01-22T03:44:22.465Z,65.68
2023-01-22T03:49:46.229Z,65.96
2023-01-22T03:55:00.571Z,65.79
2023-01-22T04:00:57.702Z,66.13
2023-01-22T04:07:04.903Z,66.26
2023-01-22T04:13:11.910Z,66.30
2023-01-22T04:19:27.492Z,66.40
2023-01-22T04:25:04.294Z,66.17
2023-01-22T04:30:26.445Z,66.55
2023-01-22T04:36:53.910Z,66.65
2023-01-22T04:42:13.113Z,66.52
2023-01-22T04:47:24.020Z,66.76
2023-01-22T04:53:27.347Z,66.68
2023-01-22T04:58:31.864Z,66.27
2023-01-22T05:04:38.987Z,66.58
2023-01-22T05:10:57.775Z,66.52
2023-01-22T05:17:11.030Z,67.08
2023-01-22T05:23:26.811Z,68.07
2023-01-22T05:29:27.268Z,65.95
2023-01-22T05:35:30.210Z,66.27
2023-01-22T05:41:00.517Z,66.25
2023-01-22T05:46:22.394Z,66.29
2023-01-22T05:52:05.456Z,66.56
2023-01-22T05:57:23.987Z,66.81
2023-01-22T06:02:58.621Z,67.09
2023-01-22T06:08:58.565Z,67.38
2023-01-22T06:15:03.344Z,67.23
2023-01-22T06:20:50.038Z,66.93
2023-01-22T06:27:07.027Z,66.87
2023-01-22T06:33:25.815Z,66.86
2023-01-22T06:38:57.061Z,67.10
2023-01-22T06:45:21.546Z,67.43
2023-01-22T06:51:17.300Z,67.22
2023-01-22T06:57:05.899Z,67.30
2023-01-22T07:02:31.734Z,67.62
2023-01-22T07:08:48.590Z,67.52
2023-01-22T07:14:55.703Z,67.73
2023-01-22T07:20:50.450Z,67.86
2023-01-22T07:26:56.273Z,67.98
2023-01-22T07:33:02.533Z,67.79
2023-01-22T07:39:11.099Z,67.78
2023-01-22T07:45:26.739Z,67.58
2023-01-22T07:51:44.771Z,68.09
2023-01-22T08:02:12.946Z,67.57
2023-01-22T08:08:29.302Z,67.64
2023-01-22T08:14:31.257Z,68.63
2023-01-22T08:20:45.481Z,69.09
2023-01-22T08:26:12.341Z,67.86
2023-01-22T08:32:01.749Z,67.97
2023-01-22T08:37:51.639Z,67.94
2023-01-22T08:43:46.836Z,69.24
2023-01-22T09:03:20.031Z,68.29
2023-01-22T09:10:02.175Z,66.95
2023-01-22T09:15:37.808Z,66.92
2023-01-22T09:22:01.921Z,67.10
2023-01-22T09:28:09.455Z,67.35
2023-01-22T09:34:18.410Z,67.50
2023-01-22T09:40:03.599Z,67.64
2023-01-22T09:45:46.682Z,68.24
2023-01-22T09:51:31.813Z,68.25
2023-01-22T10:03:18.515Z,67.67
2023-01-22T10:08:59.267Z,67.50
2023-01-22T10:15:02.237Z,67.64
2023-01-22T10:21:27.162Z,67.63
2023-01-22T10:27:37.120Z,67.33
2023-01-22T10:32:53.072Z,67.52
2023-01-22T10:46:07.390Z,68.40
2023-01-22T10:52:16.412Z,68.29
2023-01-22T10:59:28.286Z,68.14
2023-01-22T11:05:13.507Z,69.09
2023-01-22T11:11:44.551Z,68.19
2023-01-22T11:17:37.562Z,67.73
2023-01-22T11:23:20.229Z,68.20
2023-01-22T11:29:18.483Z,68.02
2023-01-22T11:36:37.782Z,68.21
2023-01-22T11:48:49.927Z,68.70
2023-01-22T11:54:43.270Z,68.44
2023-01-22T12:00:44.864Z,69.78
2023-01-22T12:14:09.271Z,68.97
2023-01-22T13:26:32.965Z,73.37
2023-01-22T13:32:57.214Z,69.34
2023-01-22T13:38:52.434Z,69.44
2023-01-22T13:51:21.903Z,70.03
2023-01-22T13:56:39.217Z,70.13
2023-01-22T14:03:04.546Z,70.99
2023-01-22T14:08:14.633Z,70.34
2023-01-22T14:14:05.928Z,70.59
2023-01-22T14:19:56.151Z,70.43
2023-01-22T14:25:40.325Z,70.64
2023-01-22T14:30:50.303Z,70.38
2023-01-22T14:37:03.248Z,70.67
2023-01-22T14:42:56.116Z,71.38
2023-01-22T14:49:03.261Z,70.29
2023-01-22T14:54:32.893Z,70.70
2023-01-22T15:00:59.506Z,70.63
2023-01-22T15:06:19.619Z,70.76
2023-01-22T15:11:52.112Z,72.10
2023-01-22T15:17:22.238Z,71.24
2023-01-22T15:23:01.103Z,71.07
2023-01-22T15:29:05.873Z,71.05
2023-01-22T15:34:24.826Z,70.97
2023-01-22T15:40:21.265Z,71.56
2023-01-22T15:45:54.445Z,71.86
2023-01-22T15:51:20.223Z,72.03
2023-01-22T15:56:33.202Z,72.13
2023-01-22T16:02:03.715Z,72.15
2023-01-22T16:07:10.339Z,72.05
2023-01-22T16:12:23.533Z,72.92
2023-01-22T16:17:48.733Z,72.34
2023-01-22T16:23:41.215Z,71.77
2023-01-22T16:36:37.613Z,71.63
2023-01-22T16:42:21.852Z,72.20
2023-01-22T16:49:35.574Z,72.28
2023-01-22T16:55:05.484Z,72.54
2023-01-22T17:01:02.724Z,72.19
2023-01-22T17:07:32.765Z,72.11
2023-01-22T17:13:10.859Z,72.81
2023-01-22T17:19:24.767Z,73.73
2023-01-22T17:25:00.584Z,71.81
2023-01-22T17:30:44.901Z,71.84
2023-01-22T17:36:32.265Z,72.18
2023-01-22T17:42:41.086Z,72.38
2023-01-22T17:48:25.061Z,72.41
2023-01-22T17:54:19.294Z,72.40
2023-01-22T18:04:23.139Z,71.99
2023-01-22T18:09:52.153Z,72.18
2023-01-22T18:15:41.807Z,72.29
2023-01-22T18:22:08.846Z,72.03
2023-01-22T18:28:23.167Z,72.37
2023-01-22T18:34:19.999Z,72.33
2023-01-22T18:40:26.962Z,72.56
2023-01-22T18:46:44.168Z,72.38
2023-01-22T18:52:29.519Z,72.41
2023-01-22T18:58:26.757Z,72.44
2023-01-22T19:04:34.919Z,72.29
2023-01-22T19:10:28.281Z,72.39
2023-01-22T19:16:35.348Z,72.73
2023-01-22T19:22:51.957Z,72.59
2023-01-22T19:36:15.844Z,72.98
2023-01-22T19:42:24.578Z,72.22
2023-01-22T19:48:13.495Z,72.12
2023-01-22T19:54:15.712Z,71.91
2023-01-22T19:59:59.395Z,72.28
2023-01-22T20:19:14.106Z,71.79
2023-01-22T20:25:54.409Z,71.89
2023-01-22T20:31:59.837Z,72.04
2023-01-22T20:37:46.206Z,71.79
2023-01-22T20:50:26.982Z,71.73
2023-01-22T21:02:10.736Z,72.15
2023-01-22T21:08:02.283Z,71.83
2023-01-22T21:13:52.790Z,72.19
2023-01-22T21:20:00.511Z,72.06
2023-01-22T21:25:34.540Z,72.22
2023-01-22T21:31:35.047Z,72.02
2023-01-22T21:37:15.792Z,72.24
2023-01-22T21:43:08.404Z,72.22
2023-01-22T21:48:27.844Z,71.81
2023-01-22T21:53:41.523Z,71.92
2023-01-22T22:03:22.053Z,72.22
2023-01-22T22:09:10.913Z,72.43
2023-01-22T22:14:44.237Z,72.23
2023-01-22T22:19:50.137Z,72.36
2023-01-22T22:25:13.844Z,72.30
2023-01-22T22:30:36.841Z,72.38
2023-01-22T22:35:56.155Z,72.06
2023-01-22T22:41:33.262Z,72.28
2023-01-22T22:46:39.353Z,72.14
2023-01-22T22:52:17.513Z,72.17
2023-01-22T23:03:31.615Z,72.31
2023-01-22T23:10:08.711Z,72.70
2023-01-22T23:21:43.950Z,72.46
2023-01-22T23:28:12.002Z,72.33
2023-01-22T23:34:21.476Z,72.62
2023-01-22T23:40:44.260Z,72.27
2023-01-22T23:46:49.255Z,72.47
